createdAt,value
2022-08-26T00:02:12.805Z,41.10
2022-08-26T00:04:41.277Z,33.10
2022-08-26T00:07:09.950Z,36.20
2022-08-26T00:09:40.209Z,42.80
2022-08-26T00:12:12.282Z,36.60
2022-08-26T00:14:40.856Z,39.40
2022-08-26T00:17:09.872Z,38.40
2022-08-26T00:19:38.806Z,33.80
2022-08-26T00:22:06.685Z,38.50
2022-08-26T00:24:35.088Z,33.90
2022-08-26T00:27:03.229Z,45.10
2022-08-26T00:29:35.515Z,39.90
2022-08-26T00:32:06.707Z,40.20
2022-08-26T00:34:36.011Z,42.00
2022-08-26T00:37:09.029Z,36.00
2022-08-26T00:39:38.480Z,36.40
2022-08-26T00:42:06.597Z,30.60
2022-08-26T00:44:35.747Z,35.40
2022-08-26T00:47:09.621Z,30.50
2022-08-26T00:49:44.433Z,32.40
2022-08-26T00:52:16.414Z,34.80
2022-08-26T00:54:51.676Z,33.70
2022-08-26T00:57:23.714Z,35.00
2022-08-26T00:59:58.823Z,35.90
2022-08-26T01:02:27.318Z,33.80
2022-08-26T01:05:01.642Z,35.20
2022-08-26T01:07:34.674Z,36.70
2022-08-26T01:10:07.150Z,34.20
2022-08-26T01:12:42.624Z,35.30
2022-08-26T01:15:17.560Z,33.80
2022-08-26T01:17:46.515Z,35.80
2022-08-26T01:20:52.164Z,34.50
2022-08-26T01:23:29.849Z,34.10
2022-08-26T01:26:06.791Z,35.90
2022-08-26T01:28:37.189Z,38.30
2022-08-26T01:31:11.496Z,31.30
2022-08-26T01:34:06.809Z,30.00
2022-08-26T01:36:41.498Z,30.80
2022-08-26T01:39:10.430Z,31.60
2022-08-26T01:41:40.655Z,29.70
2022-08-26T01:44:17.359Z,35.60
2022-08-26T01:46:48.893Z,30.10
2022-08-26T01:49:21.033Z,32.60
2022-08-26T01:51:53.416Z,35.00
2022-08-26T01:54:22.984Z,31.20
2022-08-26T01:56:52.816Z,34.70
2022-08-26T01:59:23.232Z,31.80
2022-08-26T02:01:51.994Z,30.50
2022-08-26T02:04:29.565Z,31.80
2022-08-26T02:06:58.396Z,32.00
2022-08-26T02:09:27.531Z,35.70
2022-08-26T02:11:55.868Z,27.30
2022-08-26T02:14:29.383Z,27.70
2022-08-26T02:19:34.760Z,28.60
2022-08-26T02:22:07.831Z,35.90
2022-08-26T02:24:59.188Z,37.20
2022-08-26T02:27:33.755Z,35.10
2022-08-26T02:30:08.701Z,29.00
2022-08-26T02:32:40.205Z,34.70
2022-08-26T02:35:13.783Z,30.30
2022-08-26T02:37:50.240Z,33.70
2022-08-26T02:40:21.796Z,31.80
2022-08-26T02:42:49.945Z,30.10
2022-08-26T02:45:23.238Z,33.20
2022-08-26T02:47:52.464Z,33.30
2022-08-26T02:50:20.861Z,30.60
2022-08-26T02:52:50.050Z,31.50
2022-08-26T02:55:18.308Z,30.80
2022-08-26T02:57:46.331Z,29.80
2022-08-26T03:00:15.497Z,28.10
2022-08-26T03:02:43.654Z,36.20
2022-08-26T03:05:12.479Z,28.80
2022-08-26T03:07:40.201Z,29.50
2022-08-26T03:10:08.878Z,35.70
2022-08-26T03:12:37.207Z,32.30
2022-08-26T03:15:16.648Z,27.90
2022-08-26T03:17:47.322Z,28.50
2022-08-26T03:20:17.594Z,27.50
2022-08-26T03:22:45.752Z,28.10
2022-08-26T03:25:17.032Z,27.30
2022-08-26T03:27:44.992Z,29.40
2022-08-26T03:30:33.150Z,30.70
2022-08-26T03:33:03.213Z,30.60
2022-08-26T03:35:33.544Z,31.00
2022-08-26T03:38:02.233Z,33.10
2022-08-26T03:40:34.008Z,33.90
2022-08-26T03:43:05.173Z,30.50
2022-08-26T03:45:34.491Z,28.80
2022-08-26T03:48:03.474Z,25.40
2022-08-26T03:50:34.319Z,30.70
2022-08-26T03:53:07.470Z,25.60
2022-08-26T03:55:42.107Z,24.90
2022-08-26T03:58:11.078Z,27.30
2022-08-26T04:00:55.711Z,32.00
2022-08-26T04:03:49.500Z,31.40
2022-08-26T04:06:18.008Z,25.80
2022-08-26T04:08:45.892Z,31.60
2022-08-26T04:11:21.828Z,29.30
2022-08-26T04:13:51.600Z,25.90
2022-08-26T04:16:19.599Z,27.70
2022-08-26T04:18:49.775Z,26.80
2022-08-26T04:21:18.874Z,27.40
2022-08-26T04:23:50.002Z,29.40
2022-08-26T04:26:20.121Z,25.40
2022-08-26T04:28:49.693Z,26.50
2022-08-26T04:31:18.403Z,26.10
2022-08-26T04:33:49.742Z,26.60
2022-08-26T04:36:20.143Z,30.00
2022-08-26T04:38:48.387Z,31.20
2022-08-26T04:41:19.805Z,30.80
2022-08-26T04:43:51.021Z,31.10
2022-08-26T04:46:22.904Z,34.20
2022-08-26T04:48:54.144Z,26.90
2022-08-26T04:51:27.954Z,34.70
2022-08-26T04:54:20.236Z,34.90
2022-08-26T04:56:49.738Z,39.60
2022-08-26T04:59:18.186Z,43.60
2022-08-26T05:01:50.448Z,52.40
2022-08-26T05:04:20.502Z,48.50
2022-08-26T05:06:49.699Z,54.60
2022-08-26T05:09:21.105Z,54.20
2022-08-26T05:11:52.024Z,48.30
2022-08-26T05:14:23.415Z,45.40
2022-08-26T05:16:54.358Z,41.50
2022-08-26T05:19:22.850Z,35.30
2022-08-26T05:21:51.723Z,32.60
2022-08-26T05:24:19.525Z,29.50
2022-08-26T05:26:48.145Z,24.80
2022-08-26T05:29:16.894Z,23.40
2022-08-26T05:31:45.275Z,22.80
2022-08-26T05:34:14.937Z,20.90
2022-08-26T05:36:43.319Z,23.40
2022-08-26T05:39:11.608Z,28.00
2022-08-26T05:41:41.661Z,29.20
2022-08-26T05:44:14.096Z,34.60
2022-08-26T05:46:42.558Z,27.60
2022-08-26T05:49:16.429Z,26.30
2022-08-26T05:51:47.603Z,23.60
2022-08-26T05:54:22.138Z,26.90
2022-08-26T05:56:53.622Z,33.50
2022-08-26T05:59:24.441Z,25.90
2022-08-26T06:01:55.180Z,23.30
2022-08-26T06:04:29.295Z,29.50
2022-08-26T06:06:59.180Z,30.10
2022-08-26T06:09:29.688Z,48.10
2022-08-26T06:11:58.958Z,31.50
2022-08-26T06:14:27.177Z,28.40
2022-08-26T06:16:55.295Z,35.00
2022-08-26T06:19:23.408Z,38.50
2022-08-26T06:21:54.904Z,33.60
2022-08-26T06:24:42.306Z,32.80
2022-08-26T06:27:13.937Z,32.30
2022-08-26T06:32:11.930Z,36.00
2022-08-26T06:34:39.868Z,36.80
2022-08-26T06:37:08.973Z,25.40
2022-08-26T06:39:40.197Z,34.60
2022-08-26T06:42:11.789Z,33.10
2022-08-26T06:44:44.718Z,28.90
2022-08-26T06:47:12.844Z,26.80
2022-08-26T06:49:40.689Z,29.70
2022-08-26T06:52:08.591Z,32.00
2022-08-26T06:54:38.887Z,32.10
2022-08-26T06:57:06.864Z,32.30
2022-08-26T06:59:35.531Z,30.40
2022-08-26T07:02:03.647Z,27.60
2022-08-26T07:04:31.815Z,30.40
2022-08-26T07:07:00.685Z,35.10
2022-08-26T07:09:33.782Z,32.50
2022-08-26T07:12:04.307Z,22.40
2022-08-26T07:14:34.663Z,33.10
2022-08-26T07:17:03.365Z,33.30
2022-08-26T07:19:32.123Z,24.80
2022-08-26T07:22:05.173Z,33.30
2022-08-26T07:24:36.428Z,30.60
2022-08-26T07:27:08.889Z,35.70
2022-08-26T07:29:39.657Z,32.60
2022-08-26T07:32:08.762Z,28.20
2022-08-26T07:34:38.381Z,31.60
2022-08-26T07:37:08.839Z,36.30
2022-08-26T07:39:40.414Z,42.90
2022-08-26T07:42:14.145Z,42.30
2022-08-26T07:44:44.953Z,44.30
2022-08-26T07:47:25.557Z,39.50
2022-08-26T07:49:56.805Z,53.00
2022-08-26T07:52:27.745Z,57.10
2022-08-26T07:55:04.669Z,38.50
2022-08-26T07:57:37.687Z,43.70
2022-08-26T08:00:10.907Z,46.40
2022-08-26T08:02:42.040Z,36.30
2022-08-26T08:05:12.741Z,30.50
2022-08-26T08:07:45.005Z,30.10
2022-08-26T08:10:18.878Z,23.30
2022-08-26T08:12:51.077Z,22.50
2022-08-26T08:15:21.300Z,24.30
2022-08-26T08:17:51.528Z,22.20
2022-08-26T08:20:21.589Z,25.10
2022-08-26T08:22:53.302Z,24.50
2022-08-26T08:25:23.939Z,26.30
2022-08-26T08:27:53.448Z,26.20
2022-08-26T08:30:23.343Z,37.40
2022-08-26T08:32:52.574Z,25.30
2022-08-26T08:35:22.658Z,22.60
2022-08-26T08:37:54.535Z,17.10
2022-08-26T08:40:26.602Z,19.90
2022-08-26T08:43:07.056Z,19.70
2022-08-26T08:45:47.140Z,25.20
2022-08-26T08:48:22.576Z,42.00
2022-08-26T08:51:27.203Z,20.60
2022-08-26T08:53:56.932Z,18.40
2022-08-26T08:56:57.593Z,19.80
2022-08-26T08:59:45.877Z,19.90
2022-08-26T09:02:32.103Z,23.50
2022-08-26T09:05:17.351Z,27.10
2022-08-26T09:07:51.006Z,23.90
2022-08-26T09:13:16.315Z,21.20
2022-08-26T09:15:54.506Z,21.30
2022-08-26T09:19:11.514Z,26.70
2022-08-26T09:21:40.766Z,23.30
2022-08-26T09:24:11.198Z,21.90
2022-08-26T09:26:48.121Z,25.50
2022-08-26T09:29:31.634Z,25.30
2022-08-26T09:32:26.718Z,22.40
2022-08-26T09:34:59.335Z,25.50
2022-08-26T09:37:37.223Z,27.20
2022-08-26T09:40:17.485Z,26.90
2022-08-26T09:42:45.644Z,26.80
2022-08-26T09:45:17.064Z,28.80
2022-08-26T09:48:01.326Z,28.60
2022-08-26T09:50:36.221Z,24.30
2022-08-26T09:53:12.891Z,27.00
2022-08-26T09:55:44.487Z,21.00
2022-08-26T09:58:14.915Z,24.60
2022-08-26T10:01:08.983Z,25.50
2022-08-26T10:03:43.195Z,26.10
2022-08-26T10:06:24.551Z,23.00
2022-08-26T10:08:59.098Z,24.80
2022-08-26T10:11:54.274Z,23.80
2022-08-26T10:14:35.523Z,22.00
2022-08-26T10:17:27.739Z,24.50
2022-08-26T10:20:23.849Z,27.50
2022-08-26T10:23:18.799Z,22.40
2022-08-26T10:26:39.927Z,25.30
2022-08-26T10:29:26.217Z,27.60
2022-08-26T10:32:04.838Z,25.60
2022-08-26T10:34:33.730Z,25.00
2022-08-26T10:37:14.438Z,24.70
2022-08-26T10:39:58.858Z,23.50
2022-08-26T10:42:35.549Z,23.00
2022-08-26T10:45:14.976Z,16.90
2022-08-26T10:48:01.480Z,18.50
2022-08-26T10:50:37.402Z,20.70
2022-08-26T10:53:32.712Z,16.90
2022-08-26T10:56:50.515Z,18.20
2022-08-26T10:59:43.836Z,11.70
2022-08-26T11:02:48.517Z,12.40
2022-08-26T11:05:23.768Z,16.00
2022-08-26T11:07:54.838Z,16.40
2022-08-26T11:10:23.431Z,15.50
2022-08-26T11:13:04.068Z,17.00
2022-08-26T11:15:38.423Z,13.50
2022-08-26T11:18:09.820Z,14.80
2022-08-26T11:20:48.093Z,17.20
2022-08-26T11:23:22.513Z,10.00
2022-08-26T11:25:59.680Z,14.60
2022-08-26T11:28:46.114Z,10.90
2022-08-26T11:31:31.744Z,15.80
2022-08-26T11:34:10.936Z,13.20
2022-08-26T11:37:13.787Z,12.60
2022-08-26T11:39:56.965Z,12.40
2022-08-26T11:42:54.913Z,12.90
2022-08-26T11:45:26.905Z,11.30
2022-08-26T11:47:54.953Z,14.50
2022-08-26T11:50:28.904Z,11.90
2022-08-26T11:53:07.665Z,11.70
2022-08-26T11:55:42.038Z,14.40
2022-08-26T11:58:13.111Z,11.00
2022-08-26T12:00:45.747Z,12.20
2022-08-26T12:03:31.861Z,11.40
2022-08-26T12:05:59.790Z,10.50
2022-08-26T12:08:31.324Z,10.60
2022-08-26T12:11:09.774Z,18.30
2022-08-26T12:13:39.355Z,10.70
2022-08-26T12:16:07.968Z,13.70
2022-08-26T12:18:39.121Z,12.90
2022-08-26T12:21:22.507Z,14.90
2022-08-26T12:23:56.362Z,15.60
2022-08-26T12:26:36.127Z,9.30
2022-08-26T12:29:10.845Z,12.50
2022-08-26T12:32:17.709Z,11.00
2022-08-26T12:34:49.242Z,12.90
2022-08-26T12:37:18.919Z,9.70
2022-08-26T12:39:48.059Z,9.20
2022-08-26T12:42:17.148Z,10.40
2022-08-26T12:44:54.100Z,10.90
2022-08-26T12:47:44.498Z,8.40
2022-08-26T12:50:19.223Z,10.60
2022-08-26T12:53:04.419Z,10.00
2022-08-26T12:55:32.171Z,12.30
2022-08-26T12:58:15.610Z,8.90
2022-08-26T13:03:46.492Z,9.40
2022-08-26T13:06:23.580Z,10.90
2022-08-26T13:09:10.076Z,13.40
2022-08-26T13:11:40.664Z,9.80
2022-08-26T13:14:21.118Z,9.30
2022-08-26T13:16:53.357Z,11.00
2022-08-26T13:19:25.542Z,8.20
2022-08-26T13:21:58.654Z,11.00
2022-08-26T13:26:56.867Z,8.80
2022-08-26T13:29:25.559Z,9.10
2022-08-26T13:31:56.681Z,10.80
2022-08-26T13:34:26.270Z,7.40
2022-08-26T13:36:56.537Z,13.40
2022-08-26T13:39:25.540Z,6.70
2022-08-26T13:41:54.701Z,7.90
2022-08-26T13:44:22.986Z,7.00
2022-08-26T13:46:50.837Z,8.90
2022-08-26T13:49:18.617Z,11.10
2022-08-26T13:51:46.625Z,7.40
2022-08-26T13:54:14.506Z,10.30
2022-08-26T13:56:43.158Z,9.00
2022-08-26T13:59:11.494Z,6.90
2022-08-26T14:01:40.197Z,8.10
2022-08-26T14:04:08.687Z,6.80
2022-08-26T14:06:37.588Z,10.90
2022-08-26T14:09:07.032Z,9.80
2022-08-26T14:11:54.542Z,9.30
2022-08-26T14:14:23.250Z,7.30
2022-08-26T14:17:00.097Z,10.00
2022-08-26T14:19:30.152Z,8.40
2022-08-26T14:22:00.999Z,7.40
2022-08-26T14:24:29.546Z,8.10
2022-08-26T14:26:57.344Z,12.20
2022-08-26T14:29:26.389Z,6.80
2022-08-26T14:31:57.085Z,11.20
2022-08-26T14:34:25.249Z,7.20
2022-08-26T14:36:52.989Z,8.60
2022-08-26T14:39:20.834Z,7.00
2022-08-26T14:41:54.305Z,9.80
2022-08-26T14:44:32.815Z,9.40
2022-08-26T14:47:02.944Z,11.10
2022-08-26T14:49:31.873Z,9.20
2022-08-26T14:52:00.584Z,7.20
2022-08-26T14:54:29.680Z,9.00
2022-08-26T14:57:04.269Z,12.20
2022-08-26T14:59:41.623Z,9.70
2022-08-26T15:02:32.594Z,8.60
2022-08-26T15:05:04.535Z,8.70
2022-08-26T15:07:32.734Z,17.80
2022-08-26T15:10:01.078Z,10.60
2022-08-26T15:12:29.237Z,12.20
2022-08-26T15:14:58.533Z,9.00
2022-08-26T15:17:26.734Z,8.80
2022-08-26T15:19:58.432Z,9.80
2022-08-26T15:22:29.764Z,12.20
2022-08-26T15:24:58.423Z,16.50
2022-08-26T15:27:26.714Z,10.10
2022-08-26T15:29:54.574Z,15.80
2022-08-26T15:32:23.657Z,10.20
2022-08-26T15:34:53.152Z,13.80
2022-08-26T15:37:22.457Z,9.50
2022-08-26T15:39:52.753Z,18.00
2022-08-26T15:42:21.131Z,7.20
2022-08-26T15:44:50.028Z,18.10
2022-08-26T15:47:19.236Z,15.40
2022-08-26T15:49:47.078Z,17.20
2022-08-26T15:52:17.050Z,11.60
2022-08-26T15:54:45.204Z,11.90
2022-08-26T15:57:16.443Z,7.40
2022-08-26T15:59:47.372Z,8.20
2022-08-26T16:02:15.565Z,8.90
2022-08-26T16:04:43.635Z,9.00
2022-08-26T16:07:12.799Z,9.20
2022-08-26T16:09:41.077Z,8.20
2022-08-26T16:12:08.996Z,12.50
2022-08-26T16:14:37.207Z,9.10
2022-08-26T16:17:05.124Z,10.60
2022-08-26T16:19:33.143Z,7.30
2022-08-26T16:22:00.925Z,9.70
2022-08-26T16:24:30.640Z,11.50
2022-08-26T16:26:59.461Z,9.40
2022-08-26T16:29:27.634Z,15.90
2022-08-26T16:31:55.448Z,10.20
2022-08-26T16:34:23.447Z,10.00
2022-08-26T16:36:52.041Z,8.80
2022-08-26T16:39:30.042Z,9.30
2022-08-26T16:41:57.844Z,7.00
2022-08-26T16:44:30.775Z,10.80
2022-08-26T16:49:27.546Z,10.80
2022-08-26T16:51:55.378Z,9.20
2022-08-26T16:54:23.146Z,11.00
2022-08-26T16:56:52.535Z,10.60
2022-08-26T16:59:20.757Z,6.90
2022-08-26T17:01:48.954Z,7.30
2022-08-26T17:04:19.223Z,9.30
2022-08-26T17:06:47.044Z,7.60
2022-08-26T17:09:14.886Z,7.80
2022-08-26T17:11:44.370Z,7.70
2022-08-26T17:14:13.405Z,9.80
2022-08-26T17:16:44.990Z,12.00
2022-08-26T17:19:14.335Z,8.80
2022-08-26T17:21:42.203Z,8.10
2022-08-26T17:24:10.345Z,8.60
2022-08-26T17:26:38.667Z,10.30
2022-08-26T17:29:07.932Z,8.90
2022-08-26T17:31:36.048Z,9.00
2022-08-26T17:34:04.078Z,14.30
2022-08-26T17:36:32.482Z,11.60
2022-08-26T17:39:01.821Z,11.10
2022-08-26T17:41:30.254Z,13.50
2022-08-26T17:43:58.572Z,9.50
2022-08-26T17:46:26.578Z,11.10
2022-08-26T17:48:54.767Z,12.60
2022-08-26T17:51:24.664Z,11.00
2022-08-26T17:53:52.704Z,9.00
2022-08-26T17:56:26.962Z,11.60
2022-08-26T17:58:57.761Z,14.40
2022-08-26T18:01:30.556Z,14.40
2022-08-26T18:04:00.543Z,16.20
2022-08-26T18:06:30.562Z,14.20
2022-08-26T18:08:59.379Z,15.90
2022-08-26T18:11:27.983Z,18.30
2022-08-26T18:13:55.921Z,16.30
2022-08-26T18:16:24.557Z,14.30
2022-08-26T18:18:53.501Z,13.50
2022-08-26T18:21:25.470Z,19.90
2022-08-26T18:23:54.519Z,16.00
2022-08-26T18:26:29.757Z,14.50
2022-08-26T18:28:58.971Z,24.00
2022-08-26T18:31:28.301Z,18.80
2022-08-26T18:33:56.502Z,16.00
2022-08-26T18:36:27.784Z,16.70
2022-08-26T18:38:57.280Z,17.20
2022-08-26T18:41:29.124Z,19.70
2022-08-26T18:43:58.810Z,16.20
2022-08-26T18:46:28.193Z,10.60
2022-08-26T18:48:57.372Z,12.20
2022-08-26T18:51:29.823Z,15.30
2022-08-26T18:54:00.610Z,18.10
2022-08-26T18:56:29.092Z,14.10
2022-08-26T18:58:58.443Z,20.60
2022-08-26T19:01:28.459Z,20.80
2022-08-26T19:04:01.645Z,17.90
2022-08-26T19:06:32.913Z,20.30
2022-08-26T19:09:02.820Z,18.40
2022-08-26T19:11:37.259Z,18.00
2022-08-26T19:14:16.160Z,17.90
2022-08-26T19:16:46.597Z,15.50
2022-08-26T19:19:15.879Z,18.10
2022-08-26T19:21:44.273Z,17.50
2022-08-26T19:24:17.798Z,20.20
2022-08-26T19:26:49.352Z,21.60
2022-08-26T19:29:22.064Z,15.10
2022-08-26T19:31:50.506Z,12.80
2022-08-26T19:34:20.723Z,15.90
2022-08-26T19:36:49.497Z,22.10
2022-08-26T19:39:17.365Z,13.30
2022-08-26T19:41:49.182Z,17.60
2022-08-26T19:44:39.620Z,13.60
2022-08-26T19:47:10.198Z,13.60
2022-08-26T19:49:39.312Z,11.20
2022-08-26T19:52:08.031Z,16.40
2022-08-26T19:54:37.482Z,11.70
2022-08-26T19:57:06.015Z,14.80
2022-08-26T19:59:34.099Z,12.70
2022-08-26T20:02:10.566Z,11.20
2022-08-26T20:04:41.127Z,16.50
2022-08-26T20:07:09.283Z,15.80
2022-08-26T20:09:38.389Z,13.20
2022-08-26T20:12:07.059Z,12.30
2022-08-26T20:14:36.418Z,13.50
2022-08-26T20:17:06.275Z,13.90
2022-08-26T20:19:53.949Z,12.90
2022-08-26T20:22:21.805Z,17.20
2022-08-26T20:24:49.698Z,10.70
2022-08-26T20:27:17.713Z,9.80
2022-08-26T20:29:45.716Z,12.50
2022-08-26T20:32:13.671Z,10.10
2022-08-26T20:34:43.088Z,13.70
2022-08-26T20:37:12.493Z,14.20
2022-08-26T20:39:40.514Z,10.70
2022-08-26T20:42:20.209Z,13.20
2022-08-26T20:44:54.285Z,15.50
2022-08-26T20:47:23.345Z,11.50
2022-08-26T20:49:54.464Z,12.50
2022-08-26T20:52:22.349Z,13.30
2022-08-26T20:54:51.037Z,13.70
2022-08-26T20:57:19.211Z,14.00
2022-08-26T20:59:47.518Z,17.00
2022-08-26T21:02:16.054Z,18.20
2022-08-26T21:04:43.932Z,15.80
2022-08-26T21:07:11.818Z,13.60
2022-08-26T21:09:39.641Z,16.80
2022-08-26T21:12:07.683Z,18.10
2022-08-26T21:14:35.871Z,14.50
2022-08-26T21:17:04.690Z,15.40
2022-08-26T21:19:32.897Z,13.80
2022-08-26T21:22:01.234Z,12.70
2022-08-26T21:24:29.146Z,16.00
2022-08-26T21:26:58.332Z,14.40
2022-08-26T21:29:28.184Z,14.70
2022-08-26T21:31:57.748Z,16.50
2022-08-26T21:34:27.148Z,14.60
2022-08-26T21:36:57.259Z,21.50
2022-08-26T21:39:26.020Z,17.00
2022-08-26T21:41:54.154Z,19.20
2022-08-26T21:44:22.378Z,20.50
2022-08-26T21:46:50.875Z,21.10
2022-08-26T21:49:18.663Z,17.20
2022-08-26T21:51:48.188Z,18.20
2022-08-26T21:54:18.282Z,19.20
2022-08-26T21:56:47.367Z,19.20
2022-08-26T21:59:18.103Z,18.80
2022-08-26T22:01:46.786Z,20.80
2022-08-26T22:04:15.494Z,25.80
2022-08-26T22:06:46.640Z,17.10
2022-08-26T22:09:18.014Z,14.30
2022-08-26T22:11:47.500Z,16.50
2022-08-26T22:14:16.690Z,19.10
2022-08-26T22:16:50.685Z,19.40
2022-08-26T22:19:20.931Z,18.00
2022-08-26T22:21:55.113Z,15.30
2022-08-26T22:24:25.252Z,15.20
2022-08-26T22:26:54.500Z,13.70
2022-08-26T22:29:22.555Z,17.50
2022-08-26T22:31:50.903Z,17.70
2022-08-26T22:34:21.106Z,12.90
2022-08-26T22:36:50.088Z,17.60
2022-08-26T22:39:22.023Z,12.50
2022-08-26T22:41:50.969Z,19.00
2022-08-26T22:44:21.085Z,14.00
2022-08-26T22:46:51.289Z,15.40
2022-08-26T22:49:21.207Z,11.70
2022-08-26T22:51:50.092Z,19.10
2022-08-26T22:54:18.282Z,12.50
2022-08-26T22:56:46.655Z,13.90
2022-08-26T22:59:16.355Z,11.70
2022-08-26T23:01:44.349Z,14.10
2022-08-26T23:04:12.206Z,19.20
2022-08-26T23:06:43.323Z,18.00
2022-08-26T23:09:18.640Z,16.10
2022-08-26T23:11:48.646Z,11.60
2022-08-26T23:14:19.163Z,15.70
2022-08-26T23:16:47.979Z,12.70
2022-08-26T23:19:19.667Z,16.90
2022-08-26T23:21:48.485Z,13.50
2022-08-26T23:24:17.469Z,11.30
2022-08-26T23:26:46.665Z,12.30
2022-08-26T23:29:15.772Z,14.00
2022-08-26T23:31:44.653Z,14.20
2022-08-26T23:34:32.810Z,11.60
2022-08-26T23:37:04.837Z,12.40
2022-08-26T23:39:36.523Z,14.10
2022-08-26T23:42:07.659Z,13.50
2022-08-26T23:44:36.061Z,10.70
2022-08-26T23:47:05.158Z,14.80
2022-08-26T23:49:34.264Z,12.20
2022-08-26T23:52:21.675Z,14.80
2022-08-26T23:54:50.120Z,15.00
2022-08-26T23:57:20.112Z,14.70
2022-08-26T23:59:48.670Z,18.10
